createdAt,value
2024-03-14T00:00:24.604Z,86.66
2024-03-14T00:03:29.301Z,86.74
2024-03-14T00:06:31.361Z,86.16
2024-03-14T00:09:33.708Z,86.19
2024-03-14T00:12:37.563Z,86.58
2024-03-14T00:15:39.289Z,86.33
2024-03-14T00:18:41.156Z,86.37
2024-03-14T00:21:43.077Z,86.48
2024-03-14T00:24:45.052Z,86.46
2024-03-14T00:27:46.700Z,86.82
2024-03-14T00:30:48.338Z,86.84
2024-03-14T00:33:50.007Z,86.81
2024-03-14T00:36:51.686Z,86.27
2024-03-14T00:39:53.384Z,86.41
2024-03-14T00:42:55.092Z,86.60
2024-03-14T00:45:58.076Z,86.28
2024-03-14T00:49:00.639Z,86.19
2024-03-14T00:52:02.295Z,86.43
2024-03-14T00:55:08.233Z,85.95
2024-03-14T00:58:12.228Z,86.51
2024-03-14T01:01:14.862Z,86.19
2024-03-14T01:04:18.902Z,86.07
2024-03-14T01:07:20.652Z,86.29
2024-03-14T01:10:22.353Z,86.60
2024-03-14T01:13:26.674Z,86.81
2024-03-14T01:16:28.408Z,86.75
2024-03-14T01:19:30.091Z,86.43
2024-03-14T01:22:31.779Z,87.30
2024-03-14T01:25:33.420Z,87.25
2024-03-14T01:28:35.931Z,86.58
2024-03-14T01:31:37.631Z,86.29
2024-03-14T01:34:39.305Z,85.88
2024-03-14T01:37:41.060Z,86.37
2024-03-14T01:40:42.772Z,86.68
2024-03-14T01:43:59.865Z,86.29
2024-03-14T01:47:01.656Z,86.66
2024-03-14T01:50:07.018Z,86.32
2024-03-14T01:53:08.797Z,86.12
2024-03-14T01:56:11.056Z,86.06
2024-03-14T01:59:14.556Z,85.71
2024-03-14T02:02:18.777Z,85.38
2024-03-14T02:05:35.445Z,85.75
2024-03-14T02:08:37.308Z,86.24
2024-03-14T02:11:38.968Z,86.11
2024-03-14T02:14:40.633Z,86.87
2024-03-14T02:17:42.401Z,86.21
2024-03-14T02:20:44.123Z,86.18
2024-03-14T02:23:45.922Z,86.17
2024-03-14T02:26:47.644Z,86.70
2024-03-14T02:29:49.621Z,86.41
2024-03-14T02:32:52.747Z,86.69
2024-03-14T02:35:54.610Z,87.13
2024-03-14T02:38:56.365Z,87.13
2024-03-14T02:41:58.166Z,87.38
2024-03-14T02:45:01.896Z,87.71
2024-03-14T02:48:05.658Z,87.65
2024-03-14T02:51:07.601Z,86.75
2024-03-14T02:54:09.304Z,86.79
2024-03-14T02:57:17.772Z,86.36
2024-03-14T03:00:20.562Z,85.90
2024-03-14T03:03:23.261Z,86.24
2024-03-14T03:06:28.031Z,85.96
2024-03-14T03:09:31.019Z,86.65
2024-03-14T03:12:40.468Z,86.64
2024-03-14T03:15:42.407Z,86.74
2024-03-14T03:18:44.081Z,86.90
2024-03-14T03:21:45.832Z,86.58
2024-03-14T03:24:47.466Z,86.81
2024-03-14T03:27:49.121Z,86.75
2024-03-14T03:30:50.815Z,86.92
2024-03-14T03:33:52.541Z,87.47
2024-03-14T03:36:55.244Z,87.46
2024-03-14T03:39:58.017Z,87.59
2024-03-14T03:42:59.694Z,87.51
2024-03-14T03:46:01.720Z,87.79
2024-03-14T03:49:03.704Z,87.76
2024-03-14T03:52:07.733Z,87.58
2024-03-14T03:55:17.194Z,87.51
2024-03-14T03:58:18.847Z,87.86
2024-03-14T04:01:23.652Z,87.73
2024-03-14T04:04:25.308Z,87.31
2024-03-14T04:07:29.759Z,87.47
2024-03-14T04:10:32.992Z,87.41
2024-03-14T04:13:35.064Z,87.48
2024-03-14T04:16:38.071Z,87.23
2024-03-14T04:19:40.494Z,87.16
2024-03-14T04:22:42.239Z,87.28
2024-03-14T04:25:43.896Z,87.43
2024-03-14T04:28:46.212Z,87.54
2024-03-14T04:31:47.902Z,87.56
2024-03-14T04:34:49.553Z,87.75
2024-03-14T04:37:53.147Z,87.69
2024-03-14T04:40:57.223Z,87.36
2024-03-14T04:43:58.993Z,87.61
2024-03-14T04:47:00.645Z,87.61
2024-03-14T04:50:03.273Z,87.37
2024-03-14T04:53:05.891Z,87.22
2024-03-14T04:56:07.722Z,86.93
2024-03-14T04:59:10.461Z,86.93
2024-03-14T05:02:12.146Z,87.49
2024-03-14T05:05:14.252Z,87.48
2024-03-14T05:08:15.891Z,87.47
2024-03-14T05:11:17.578Z,87.39
2024-03-14T05:14:19.231Z,86.85
2024-03-14T05:17:21.304Z,86.67
2024-03-14T05:20:24.710Z,86.67
2024-03-14T05:23:26.444Z,86.27
2024-03-14T05:26:30.946Z,86.20
2024-03-14T05:29:32.577Z,86.08
2024-03-14T05:32:35.260Z,86.41
2024-03-14T05:35:37.050Z,86.46
2024-03-14T05:38:38.690Z,86.29
2024-03-14T05:41:40.700Z,86.31
2024-03-14T05:44:42.760Z,86.44
2024-03-14T05:47:44.552Z,86.10
2024-03-14T05:50:47.934Z,86.35
2024-03-14T05:53:49.630Z,86.41
2024-03-14T05:56:51.305Z,86.65
2024-03-14T05:59:53.019Z,86.86
2024-03-14T06:02:54.702Z,86.75
2024-03-14T06:05:56.452Z,87.09
2024-03-14T06:08:58.140Z,86.82
2024-03-14T06:12:02.943Z,87.28
2024-03-14T06:15:10.646Z,87.25
2024-03-14T06:18:12.655Z,87.44
2024-03-14T06:21:14.604Z,87.33
2024-03-14T06:24:17.977Z,87.41
2024-03-14T06:27:19.712Z,87.33
2024-03-14T06:30:22.254Z,87.21
2024-03-14T06:33:25.135Z,87.33
2024-03-14T06:36:28.081Z,87.57
2024-03-14T06:39:31.860Z,88.19
2024-03-14T06:42:34.371Z,88.10
2024-03-14T06:45:36.299Z,87.49
2024-03-14T06:48:38.192Z,88.02
2024-03-14T06:51:43.523Z,87.92
2024-03-14T06:54:45.264Z,88.00
2024-03-14T06:57:48.788Z,87.98
2024-03-14T07:00:50.463Z,87.46
2024-03-14T07:03:52.598Z,87.18
2024-03-14T07:06:54.343Z,87.42
2024-03-14T07:09:56.259Z,87.54
2024-03-14T07:13:01.647Z,88.05
2024-03-14T07:16:03.398Z,87.67
2024-03-14T07:19:07.786Z,88.22
2024-03-14T07:22:10.820Z,87.87
2024-03-14T07:25:20.196Z,87.87
2024-03-14T07:28:22.436Z,87.97
2024-03-14T07:31:24.292Z,87.88
2024-03-14T07:34:26.851Z,87.52
2024-03-14T07:37:28.521Z,87.30
2024-03-14T07:40:34.526Z,87.48
2024-03-14T07:43:36.446Z,87.40
2024-03-14T07:46:38.499Z,86.64
2024-03-14T07:49:40.935Z,87.07
2024-03-14T07:52:42.635Z,87.53
2024-03-14T07:55:44.285Z,86.98
2024-03-14T07:58:47.569Z,86.69
2024-03-14T08:01:51.228Z,86.10
2024-03-14T08:04:53.247Z,85.06
2024-03-14T08:08:04.399Z,84.93
2024-03-14T08:11:18.161Z,84.84
2024-03-14T08:14:19.950Z,84.54
2024-03-14T08:17:21.819Z,84.71
2024-03-14T08:20:25.797Z,84.02
2024-03-14T08:23:28.251Z,83.61
2024-03-14T08:26:31.183Z,82.68
2024-03-14T08:29:32.864Z,82.67
2024-03-14T08:32:34.534Z,83.79
2024-03-14T08:35:41.702Z,82.12
2024-03-14T08:38:43.571Z,81.90
2024-03-14T08:41:45.241Z,81.26
2024-03-14T08:44:49.127Z,81.14
2024-03-14T08:47:51.144Z,81.14
2024-03-14T08:50:52.916Z,80.13
2024-03-14T08:54:09.905Z,79.35
2024-03-14T08:57:14.063Z,80.11
2024-03-14T09:00:19.091Z,79.17
2024-03-14T09:03:21.066Z,77.78
2024-03-14T09:06:22.986Z,78.64
2024-03-14T09:09:35.466Z,74.21
2024-03-14T09:12:37.239Z,74.81
2024-03-14T09:15:39.541Z,76.68
2024-03-14T09:18:41.921Z,74.23
2024-03-14T09:21:43.806Z,73.83
2024-03-14T09:24:45.554Z,72.85
2024-03-14T09:27:47.269Z,73.33
2024-03-14T09:30:48.996Z,72.71
2024-03-14T09:33:51.861Z,71.76
2024-03-14T09:36:55.203Z,70.39
2024-03-14T09:39:59.225Z,69.83
2024-03-14T09:43:01.764Z,70.68
2024-03-14T09:46:04.630Z,68.04
2024-03-14T09:49:13.991Z,69.48
2024-03-14T09:52:15.859Z,68.47
2024-03-14T09:55:19.057Z,67.05
2024-03-14T09:58:22.905Z,65.69
2024-03-14T10:01:24.907Z,68.50
2024-03-14T10:04:26.674Z,64.71
2024-03-14T10:07:31.777Z,66.46
2024-03-14T10:10:36.467Z,64.48
2024-03-14T10:13:39.112Z,64.48
2024-03-14T10:16:40.958Z,64.02
2024-03-14T10:19:42.737Z,63.09
2024-03-14T10:22:45.269Z,63.41
2024-03-14T10:25:51.753Z,63.01
2024-03-14T10:28:53.421Z,62.03
2024-03-14T10:31:55.064Z,64.35
2024-03-14T10:34:56.764Z,63.35
2024-03-14T10:37:59.768Z,64.56
2024-03-14T10:41:07.556Z,64.86
2024-03-14T10:44:15.325Z,63.18
2024-03-14T10:47:19.683Z,62.68
2024-03-14T10:50:22.701Z,63.25
2024-03-14T10:53:25.592Z,62.01
2024-03-14T10:56:28.570Z,61.97
2024-03-14T10:59:30.944Z,62.77
2024-03-14T11:02:32.939Z,61.57
2024-03-14T11:05:34.634Z,62.52
2024-03-14T11:08:40.515Z,62.01
2024-03-14T11:11:43.444Z,61.17
2024-03-14T11:14:52.246Z,60.46
2024-03-14T11:18:00.618Z,60.55
2024-03-14T11:21:05.291Z,61.23
2024-03-14T11:24:11.256Z,59.57
2024-03-14T11:27:14.957Z,60.07
2024-03-14T11:30:20.366Z,58.56
2024-03-14T11:33:22.339Z,59.38
2024-03-14T11:36:24.096Z,60.15
2024-03-14T11:39:27.630Z,60.18
2024-03-14T11:42:29.704Z,59.07
2024-03-14T11:45:33.116Z,59.84
2024-03-14T11:48:35.546Z,59.97
2024-03-14T11:51:42.375Z,58.72
2024-03-14T11:54:44.269Z,58.66
2024-03-14T11:57:49.158Z,60.19
2024-03-14T12:00:54.562Z,59.10
2024-03-14T12:03:59.175Z,58.46
2024-03-14T12:07:04.388Z,57.32
2024-03-14T12:10:11.519Z,56.52
2024-03-14T12:13:14.796Z,57.38
2024-03-14T12:16:19.355Z,58.46
2024-03-14T12:19:21.418Z,58.40
2024-03-14T12:22:23.266Z,57.71
2024-03-14T12:25:25.524Z,55.35
2024-03-14T12:28:27.502Z,57.02
2024-03-14T12:31:30.202Z,57.28
2024-03-14T12:34:31.900Z,56.65
2024-03-14T12:37:34.319Z,55.86
2024-03-14T12:40:36.785Z,58.24
2024-03-14T12:43:39.060Z,58.66
2024-03-14T12:46:40.975Z,57.83
2024-03-14T12:49:43.266Z,57.27
2024-03-14T12:52:46.714Z,56.43
2024-03-14T12:55:56.430Z,56.73
2024-03-14T12:59:00.262Z,56.82
2024-03-14T13:02:02.559Z,57.02
2024-03-14T13:05:13.915Z,55.14
2024-03-14T13:08:15.927Z,55.14
2024-03-14T13:11:18.536Z,54.62
2024-03-14T13:14:26.563Z,55.22
2024-03-14T13:17:29.266Z,55.02
2024-03-14T13:20:32.406Z,54.40
2024-03-14T13:23:34.237Z,54.01
2024-03-14T13:26:35.959Z,53.06
2024-03-14T13:29:38.936Z,51.90
2024-03-14T13:32:40.751Z,54.24
2024-03-14T13:35:42.509Z,51.82
2024-03-14T13:38:44.794Z,52.03
2024-03-14T13:41:48.054Z,52.47
2024-03-14T13:44:50.955Z,52.95
2024-03-14T13:47:56.313Z,53.32
2024-03-14T13:50:58.093Z,50.24
2024-03-14T13:54:03.747Z,50.79
2024-03-14T13:57:09.862Z,52.27
2024-03-14T14:00:13.433Z,50.61
2024-03-14T14:03:26.140Z,49.66
2024-03-14T14:06:28.909Z,52.58
2024-03-14T14:09:33.734Z,49.52
2024-03-14T14:12:36.138Z,51.12
2024-03-14T14:15:38.423Z,49.59
2024-03-14T14:18:41.412Z,50.20
2024-03-14T14:21:43.158Z,49.19
2024-03-14T14:24:45.387Z,49.62
2024-03-14T14:27:47.106Z,48.77
2024-03-14T14:30:48.958Z,50.99
2024-03-14T14:33:51.096Z,48.48
2024-03-14T14:36:53.739Z,49.61
2024-03-14T14:39:56.449Z,48.53
2024-03-14T14:42:59.108Z,49.59
2024-03-14T14:46:01.327Z,47.44
2024-03-14T14:49:03.179Z,49.03
2024-03-14T14:52:05.939Z,49.19
2024-03-14T14:55:15.037Z,49.24
2024-03-14T14:58:17.033Z,50.08
2024-03-14T15:01:19.168Z,50.56
2024-03-14T15:04:22.123Z,51.36
2024-03-14T15:07:23.820Z,50.48
2024-03-14T15:10:25.494Z,51.12
2024-03-14T15:13:27.398Z,49.57
2024-03-14T15:16:29.650Z,50.50
2024-03-14T15:19:38.678Z,50.90
2024-03-14T15:22:46.988Z,49.36
2024-03-14T15:25:48.667Z,49.10
2024-03-14T15:28:50.293Z,49.15
2024-03-14T15:31:51.989Z,49.18
2024-03-14T15:34:53.727Z,49.99
2024-03-14T15:37:59.432Z,50.49
2024-03-14T15:41:01.101Z,50.52
2024-03-14T15:44:02.767Z,50.06
2024-03-14T15:47:05.071Z,50.41
2024-03-14T15:50:09.674Z,51.33
2024-03-14T15:53:12.091Z,50.91
2024-03-14T15:56:13.838Z,51.52
2024-03-14T15:59:15.628Z,52.45
2024-03-14T16:02:17.348Z,53.10
2024-03-14T16:05:19.702Z,54.68
2024-03-14T16:08:31.666Z,53.53
2024-03-14T16:11:38.964Z,53.11
2024-03-14T16:14:40.689Z,54.44
2024-03-14T16:17:42.788Z,54.01
2024-03-14T16:20:49.246Z,53.73
2024-03-14T16:23:51.338Z,53.61
2024-03-14T16:26:53.936Z,53.99
2024-03-14T16:29:56.804Z,54.79
2024-03-14T16:32:58.844Z,55.01
2024-03-14T16:36:05.346Z,55.62
2024-03-14T16:39:09.233Z,56.97
2024-03-14T16:42:11.515Z,57.97
2024-03-14T16:45:13.915Z,58.14
2024-03-14T16:48:17.646Z,58.58
2024-03-14T16:51:19.452Z,59.92
2024-03-14T16:54:23.337Z,59.32
2024-03-14T16:57:26.230Z,59.01
2024-03-14T17:00:33.841Z,59.65
2024-03-14T17:03:35.806Z,60.01
2024-03-14T17:06:37.691Z,60.54
2024-03-14T17:09:39.501Z,61.32
2024-03-14T17:12:41.373Z,62.14
2024-03-14T17:15:44.127Z,62.71
2024-03-14T17:18:45.930Z,63.33
2024-03-14T17:21:47.730Z,63.19
2024-03-14T17:24:49.491Z,64.05
2024-03-14T17:27:55.429Z,64.42
2024-03-14T17:30:57.482Z,64.37
2024-03-14T17:33:59.194Z,65.19
2024-03-14T17:37:02.240Z,64.36
2024-03-14T17:40:12.502Z,64.01
2024-03-14T17:43:14.549Z,64.41
2024-03-14T17:46:16.810Z,65.46
2024-03-14T17:49:21.502Z,65.82
2024-03-14T17:52:23.814Z,64.83
2024-03-14T17:55:25.496Z,65.14
2024-03-14T17:58:27.150Z,65.66
2024-03-14T18:01:28.872Z,65.78
2024-03-14T18:04:32.687Z,66.18
2024-03-14T18:07:35.442Z,66.61
2024-03-14T18:10:37.761Z,66.69
2024-03-14T18:13:39.463Z,66.85
2024-03-14T18:16:42.732Z,67.74
2024-03-14T18:19:44.684Z,67.62
2024-03-14T18:22:46.566Z,67.81
2024-03-14T18:25:48.314Z,67.99
2024-03-14T18:28:50.435Z,68.18
2024-03-14T18:31:52.387Z,68.62
2024-03-14T18:34:57.219Z,68.93
2024-03-14T18:38:00.254Z,69.71
2024-03-14T18:41:02.047Z,69.56
2024-03-14T18:44:03.954Z,70.59
2024-03-14T18:47:06.011Z,70.60
2024-03-14T18:50:12.592Z,70.89
2024-03-14T18:53:21.475Z,71.15
2024-03-14T18:56:30.107Z,71.09
2024-03-14T18:59:32.870Z,72.11
2024-03-14T19:02:35.043Z,72.20
2024-03-14T19:05:37.209Z,72.37
2024-03-14T19:08:39.229Z,72.60
2024-03-14T19:11:41.658Z,72.99
2024-03-14T19:14:45.023Z,73.03
2024-03-14T19:17:48.359Z,73.41
2024-03-14T19:20:51.258Z,73.78
2024-03-14T19:23:55.604Z,74.00
2024-03-14T19:27:00.098Z,74.15
2024-03-14T19:30:04.155Z,74.40
2024-03-14T19:33:07.492Z,74.82
2024-03-14T19:36:10.292Z,74.67
2024-03-14T19:39:12.593Z,75.30
2024-03-14T19:42:18.574Z,75.58
2024-03-14T19:45:22.376Z,74.93
2024-03-14T19:48:24.124Z,75.88
2024-03-14T19:51:25.857Z,74.88
2024-03-14T19:54:27.520Z,74.93
2024-03-14T19:57:30.540Z,75.61
2024-03-14T20:00:32.417Z,75.26
2024-03-14T20:03:34.099Z,75.24
2024-03-14T20:06:36.024Z,75.48
2024-03-14T20:09:38.711Z,75.38
2024-03-14T20:12:40.481Z,76.34
2024-03-14T20:15:42.530Z,75.89
2024-03-14T20:18:44.850Z,76.25
2024-03-14T20:21:46.703Z,76.51
2024-03-14T20:24:49.724Z,76.66
2024-03-14T20:27:51.756Z,76.45
2024-03-14T20:30:53.715Z,76.65
2024-03-14T20:33:58.062Z,77.38
2024-03-14T20:37:00.061Z,77.76
2024-03-14T20:40:02.382Z,77.47
2024-03-14T20:43:06.904Z,77.75
2024-03-14T20:46:11.474Z,77.82
2024-03-14T20:49:15.263Z,77.93
2024-03-14T20:52:16.916Z,78.63
2024-03-14T20:55:30.273Z,78.53
2024-03-14T20:58:32.876Z,78.89
2024-03-14T21:01:34.675Z,78.66
2024-03-14T21:04:36.377Z,79.05
2024-03-14T21:07:39.215Z,78.59
2024-03-14T21:10:41.291Z,79.16
2024-03-14T21:13:43.019Z,79.58
2024-03-14T21:16:44.780Z,79.67
2024-03-14T21:19:48.116Z,79.68
2024-03-14T21:22:53.076Z,79.80
2024-03-14T21:25:55.072Z,79.94
2024-03-14T21:29:00.525Z,79.81
2024-03-14T21:32:02.675Z,80.22
2024-03-14T21:35:10.799Z,80.22
2024-03-14T21:38:12.904Z,80.67
2024-03-14T21:41:14.572Z,80.85
2024-03-14T21:44:18.661Z,80.79
2024-03-14T21:47:20.315Z,81.27
2024-03-14T21:50:22.021Z,81.50
2024-03-14T21:53:23.863Z,80.97
2024-03-14T21:56:26.206Z,80.58
2024-03-14T21:59:27.886Z,79.94
2024-03-14T22:02:29.534Z,80.87
2024-03-14T22:05:31.908Z,80.58
2024-03-14T22:08:33.626Z,80.43
2024-03-14T22:11:35.468Z,80.57
2024-03-14T22:14:37.363Z,80.70
2024-03-14T22:17:39.622Z,80.19
2024-03-14T22:20:41.414Z,80.41
2024-03-14T22:23:43.573Z,80.71
2024-03-14T22:26:46.459Z,80.75
2024-03-14T22:29:48.367Z,80.77
2024-03-14T22:32:50.447Z,80.51
2024-03-14T22:35:52.106Z,81.28
2024-03-14T22:38:53.905Z,81.46
2024-03-14T22:41:55.571Z,81.11
2024-03-14T22:44:58.505Z,81.27
2024-03-14T22:48:00.141Z,81.60
2024-03-14T22:51:02.022Z,81.79
2024-03-14T22:54:03.843Z,81.79
2024-03-14T22:57:07.132Z,82.09
2024-03-14T23:00:20.242Z,81.25
2024-03-14T23:03:22.030Z,81.40
2024-03-14T23:06:23.749Z,81.15
2024-03-14T23:09:25.453Z,80.45
2024-03-14T23:12:27.111Z,80.64
2024-03-14T23:15:31.466Z,80.32
2024-03-14T23:18:33.220Z,79.97
2024-03-14T23:21:36.027Z,79.89
2024-03-14T23:24:38.356Z,79.78
2024-03-14T23:27:40.390Z,79.50
2024-03-14T23:30:50.111Z,79.31
2024-03-14T23:33:52.092Z,80.09
2024-03-14T23:36:53.893Z,79.95
2024-03-14T23:39:56.035Z,79.62
2024-03-14T23:42:58.988Z,79.72
2024-03-14T23:46:00.706Z,79.63
2024-03-14T23:49:02.450Z,78.94
2024-03-14T23:52:04.438Z,79.43
2024-03-14T23:55:06.438Z,79.38
2024-03-14T23:58:11.041Z,79.56
